Time;durP1;ratioP1;P1;durP2;ratioP2;P2;SDS_P1;SDS_P2;PMS_P1;PMS_P2;Temp;Humidity;BMP_temperature;BMP_pressure;BME280_temperature;BME280_humidity;BME280_pressure;Samples;Min_cycle;Max_cycle;Signal;HPM_P1;HPM_P2
2021/11/16 00:00:36;;;;;;;18.00;14.32;;;;;;;6.83;83.97;100365.34;5001588;28;20457;-55
2021/11/16 00:03:01;;;;;;;23.02;18.27;;;;;;;7.00;75.02;100355.28;5002165;28;20826;-56
2021/11/16 00:05:26;;;;;;;21.27;15.75;;;;;;;7.14;74.47;100361.94;4998791;28;20042;-52
2021/11/16 00:07:52;;;;;;;24.08;18.20;;;;;;;7.22;73.79;100365.22;5001686;28;20045;-56
2021/11/16 00:10:18;;;;;;;24.05;17.83;;;;;;;7.15;73.98;100353.19;5002005;28;20045;-55
2021/11/16 00:12:44;;;;;;;22.73;16.23;;;;;;;7.09;72.79;100351.59;5002483;28;20129;-53
2021/11/16 00:15:10;;;;;;;24.60;17.92;;;;;;;6.97;73.71;100351.91;5002046;28;20116;-55
2021/11/16 00:17:37;;;;;;;23.67;17.25;;;;;;;6.84;73.89;100360.06;5001700;28;20052;-56
2021/11/16 00:20:06;;;;;;;27.05;20.88;;;;;;;6.83;73.89;100360.94;5001323;28;20212;-56
2021/11/16 00:22:31;;;;;;;25.40;19.38;;;;;;;6.68;74.86;100353.47;5001898;28;20096;-55
2021/11/16 00:25:09;;;;;;;18.08;13.57;;;;;;;6.77;75.61;100347.13;5001948;28;20408;-56
2021/11/16 00:27:36;;;;;;;22.70;18.40;;;;;;;6.81;74.25;100343.53;5002101;28;20387;-57
2021/11/16 00:30:05;;;;;;;17.67;13.45;;;;;;;6.96;75.78;100337.06;5001815;28;20058;-54
2021/11/16 00:32:30;;;;;;;20.33;13.82;;;;;;;7.64;73.15;100338.75;5001703;28;20052;-55
2021/11/16 00:34:55;;;;;;;19.05;14.90;;;;;;;7.87;70.88;100335.44;5001459;28;20038;-56
2021/11/16 00:37:25;;;;;;;25.38;17.95;;;;;;;7.63;71.35;100339.63;5001167;28;20066;-57
2021/11/16 00:39:55;;;;;;;18.70;15.18;;;;;;;7.47;72.33;100337.44;4984210;28;20041;-58
2021/11/16 00:42:22;;;;;;;28.05;21.02;;;;;;;7.23;72.93;100341.56;5000982;28;20045;-55
2021/11/16 00:44:47;;;;;;;29.30;20.73;;;;;;;7.01;74.06;100336.03;5002295;28;20034;-58
2021/11/16 00:47:13;;;;;;;30.25;22.10;;;;;;;6.72;75.42;100341.13;5002197;28;20049;-70
2021/11/16 00:49:39;;;;;;;29.05;21.40;;;;;;;6.59;76.09;100341.44;5001284;28;20042;-68
2021/11/16 00:52:05;;;;;;;25.60;16.80;;;;;;;6.58;75.93;100341.50;5001855;28;20144;-68
2021/11/16 00:54:30;;;;;;;21.13;15.93;;;;;;;6.63;75.97;100337.84;5002026;28;20041;-70
2021/11/16 00:56:56;;;;;;;23.63;15.60;;;;;;;6.68;74.72;100339.50;4988575;28;20096;-69
2021/11/16 00:59:21;;;;;;;21.05;15.18;;;;;;;6.64;75.34;100333.47;4994682;28;20191;-69
2021/11/16 01:01:49;;;;;;;23.63;17.80;;;;;;;6.57;75.74;100331.91;5016075;28;20370;-69
2021/11/16 01:04:17;;;;;;;24.02;19.13;;;;;;;6.56;75.95;100330.19;5018041;28;20114;-69
2021/11/16 01:06:44;;;;;;;18.58;15.02;;;;;;;6.48;76.10;100330.38;5016452;28;20034;-69
2021/11/16 01:09:10;;;;;;;26.90;16.50;;;;;;;6.33;77.20;100331.59;5015796;28;20021;-68
2021/11/16 01:11:37;;;;;;;22.67;17.30;;;;;;;6.31;77.35;100335.16;5005942;28;20104;-68
2021/11/16 01:14:03;;;;;;;20.08;14.57;;;;;;;6.26;77.49;100331.78;5006786;28;20037;-69
2021/11/16 01:16:28;;;;;;;17.63;13.85;;;;;;;6.24;77.15;100337.88;5007590;28;20501;-68
2021/11/16 01:18:54;;;;;;;20.75;15.50;;;;;;;6.22;77.37;100341.44;5007661;28;20046;-68
2021/11/16 01:21:19;;;;;;;20.73;15.48;;;;;;;6.15;77.52;100342.47;5007290;28;20048;-69
2021/11/16 01:23:46;;;;;;;23.75;17.15;;;;;;;6.11;77.74;100338.22;4989467;28;20037;-69
2021/11/16 01:26:12;;;;;;;20.52;14.75;;;;;;;6.06;77.74;100338.31;5007203;28;20042;-68
2021/11/16 01:28:38;;;;;;;18.58;14.23;;;;;;;6.09;78.01;100340.00;5000722;28;20065;-68
2021/11/16 01:31:05;;;;;;;21.45;15.13;;;;;;;6.08;77.20;100335.63;5005772;28;20104;-68
2021/11/16 01:33:42;;;;;;;25.38;17.77;;;;;;;6.06;77.25;100340.94;4999870;28;20030;-68
2021/11/16 01:36:14;;;;;;;21.23;16.13;;;;;;;6.01;78.38;100348.03;5022405;28;20040;-68
2021/11/16 01:38:40;;;;;;;25.60;19.08;;;;;;;5.98;78.32;100338.47;5005095;28;20034;-68
2021/11/16 01:41:06;;;;;;;25.02;17.75;;;;;;;5.98;78.11;100337.59;5006093;28;20401;-68
2021/11/16 01:43:32;;;;;;;28.42;18.50;;;;;;;5.95;77.90;100328.06;5006918;28;20092;-68
2021/11/16 01:46:01;;;;;;;23.00;17.10;;;;;;;5.85;78.63;100325.66;5005685;28;20026;-68
2021/11/16 01:48:27;;;;;;;27.88;17.60;;;;;;;5.80;79.60;100331.81;5006768;28;20037;-68
2021/11/16 01:50:52;;;;;;;24.25;17.80;;;;;;;5.88;79.69;100325.56;5006576;28;20030;-68
2021/11/16 01:53:18;;;;;;;19.73;14.63;;;;;;;5.98;79.02;100317.53;5007135;28;20451;-68
2021/11/16 01:55:44;;;;;;;22.45;16.60;;;;;;;6.00;78.37;100323.56;5006939;28;20034;-69
2021/11/16 01:58:09;;;;;;;21.50;16.27;;;;;;;6.04;78.22;100327.00;5006833;28;20723;-69
2021/11/16 02:00:38;;;;;;;24.10;16.40;;;;;;;6.06;78.88;100322.59;4982709;28;20068;-68
2021/11/16 02:03:07;;;;;;;20.63;14.73;;;;;;;6.06;78.58;100314.75;5006818;28;20032;-69
2021/11/16 02:05:41;;;;;;;25.83;18.23;;;;;;;6.01;79.09;100306.16;5007053;28;20065;-69
2021/11/16 02:08:08;;;;;;;27.88;19.98;;;;;;;6.00;79.70;100309.63;5003181;28;20058;-69
2021/11/16 02:10:34;;;;;;;22.38;15.95;;;;;;;6.01;80.43;100311.38;5006188;28;20045;-69
2021/11/16 02:13:00;;;;;;;22.83;17.58;;;;;;;5.97;80.90;100305.34;5006440;28;20026;-69
2021/11/16 02:15:26;;;;;;;25.83;17.42;;;;;;;6.00;80.14;100304.41;5007047;28;20099;-68
2021/11/16 02:17:51;;;;;;;24.83;18.35;;;;;;;6.02;80.61;100302.63;5006485;28;20034;-68
2021/11/16 02:20:17;;;;;;;20.70;16.20;;;;;;;6.01;80.37;100296.53;5008039;28;20379;-69
2021/11/16 02:22:44;;;;;;;22.42;15.27;;;;;;;6.11;80.24;100294.56;5010519;28;20537;-69
2021/11/16 02:25:10;;;;;;;26.65;17.98;;;;;;;6.12;79.16;100298.91;5010628;28;20610;-68
2021/11/16 02:27:35;;;;;;;29.55;19.15;;;;;;;6.03;79.79;100301.75;5010307;28;20037;-69
2021/11/16 02:30:01;;;;;;;28.13;18.83;;;;;;;5.98;79.50;100293.09;5008781;28;20137;-68
2021/11/16 02:32:30;;;;;;;22.67;15.68;;;;;;;5.95;80.37;100287.94;5010090;28;20676;-68
2021/11/16 02:34:55;;;;;;;22.27;15.70;;;;;;;5.96;80.13;100290.53;5010523;28;20062;-67
2021/11/16 02:37:20;;;;;;;29.10;20.08;;;;;;;5.90;80.03;100287.16;5010675;28;20081;-68
2021/11/16 02:39:46;;;;;;;32.15;20.00;;;;;;;5.85;80.61;100281.16;4992942;28;20085;-67
2021/11/16 02:42:12;;;;;;;30.17;19.65;;;;;;;5.81;81.00;100283.00;5009756;28;20045;-67
2021/11/16 02:44:41;;;;;;;24.55;16.98;;;;;;;5.82;81.15;100282.09;5010055;28;20034;-68
2021/11/16 02:47:06;;;;;;;22.10;16.17;;;;;;;5.81;81.58;100286.47;5009912;28;20034;-69
2021/11/16 02:49:34;;;;;;;23.40;15.15;;;;;;;5.84;80.73;100285.53;5009875;28;20490;-69
2021/11/16 02:51:59;;;;;;;27.95;18.98;;;;;;;5.90;80.55;100298.47;5009777;28;20645;-68
2021/11/16 02:54:26;;;;;;;28.23;17.13;;;;;;;5.93;81.10;100293.19;5010040;28;20041;-68
2021/11/16 02:56:51;;;;;;;19.10;13.48;;;;;;;5.98;80.22;100298.34;4992352;28;20057;-68
2021/11/16 02:59:16;;;;;;;21.85;14.93;;;;;;;6.02;79.83;100292.16;5009814;28;20042;-69
2021/11/16 03:01:42;;;;;;;21.50;15.15;;;;;;;6.02;79.33;100290.38;5009606;28;20072;-68
2021/11/16 03:04:08;;;;;;;19.20;14.15;;;;;;;6.01;80.28;100298.28;5009840;28;20034;-68
2021/11/16 03:06:34;;;;;;;16.95;13.75;;;;;;;6.02;78.96;100282.53;5008818;28;20034;-68
2021/11/16 03:09:00;;;;;;;22.33;16.08;;;;;;;6.00;79.30;100286.94;5009687;28;20033;-68
2021/11/16 03:11:26;;;;;;;21.33;15.38;;;;;;;6.02;79.40;100281.69;5008705;28;20095;-68
2021/11/16 03:13:53;;;;;;;14.73;11.25;;;;;;;6.02;78.08;100282.53;5007693;28;20030;-69
2021/11/16 03:16:22;;;;;;;16.10;11.40;;;;;;;6.05;77.78;100279.00;5007344;28;20038;-68
2021/11/16 03:18:49;;;;;;;14.18;10.63;;;;;;;6.09;78.06;100264.94;5006992;28;20030;-68
2021/11/16 03:21:17;;;;;;;14.90;11.38;;;;;;;6.12;76.88;100270.09;5009004;28;20042;-68
2021/11/16 03:23:44;;;;;;;22.23;13.63;;;;;;;6.07;77.55;100268.50;5009535;28;20037;-68
2021/11/16 03:26:11;;;;;;;18.45;13.30;;;;;;;6.04;78.22;100273.81;5009450;28;20437;-69
2021/11/16 03:28:40;;;;;;;26.25;16.50;;;;;;;5.91;78.86;100267.97;5004474;28;20443;-69
2021/11/16 03:31:20;;;;;;;17.92;12.88;;;;;;;5.91;79.41;100267.97;5007670;28;20030;-68
2021/11/16 03:33:47;;;;;;;21.85;14.13;;;;;;;5.97;79.08;100268.69;5009211;28;20038;-68
2021/11/16 03:36:13;;;;;;;22.55;14.77;;;;;;;5.94;79.11;100273.16;5017620;28;20058;-69
2021/11/16 03:38:40;;;;;;;15.60;11.82;;;;;;;5.93;79.48;100271.38;5029250;28;20601;-69
2021/11/16 03:41:06;;;;;;;16.60;12.82;;;;;;;5.96;79.00;100276.59;5028712;28;20057;-69
2021/11/16 03:43:33;;;;;;;18.65;12.75;;;;;;;5.98;78.47;100272.16;5029639;28;20052;-69
2021/11/16 03:45:59;;;;;;;19.95;13.88;;;;;;;5.99;78.84;100268.69;5029442;28;20025;-69
2021/11/16 03:48:25;;;;;;;19.20;14.40;;;;;;;5.98;79.22;100270.44;5028936;28;20110;-68
2021/11/16 03:50:50;;;;;;;18.45;12.63;;;;;;;6.01;79.51;100270.34;5028363;28;20032;-68
2021/11/16 03:53:16;;;;;;;25.00;16.02;;;;;;;5.99;79.49;100266.91;5028590;28;20037;-69
2021/11/16 03:55:44;;;;;;;21.23;13.55;;;;;;;5.98;79.07;100261.69;5028821;28;20034;-69
2021/11/16 03:58:12;;;;;;;21.60;13.95;;;;;;;5.94;79.60;100263.53;5028366;28;20049;-68
2021/11/16 04:00:53;;;;;;;19.73;15.52;;;;;;;5.90;79.42;100261.00;5010581;28;20053;-68
2021/11/16 04:03:21;;;;;;;20.38;14.27;;;;;;;5.92;79.91;100259.19;5029645;28;20112;-68
2021/11/16 04:05:47;;;;;;;17.35;12.88;;;;;;;5.96;80.42;100259.13;5029246;28;20034;-68
2021/11/16 04:08:13;;;;;;;17.73;13.20;;;;;;;6.00;79.96;100262.53;5028964;28;20040;-69
2021/11/16 04:10:39;;;;;;;21.65;15.35;;;;;;;5.89;79.65;100267.97;5027796;28;20036;-66
2021/11/16 04:13:05;;;;;;;20.42;13.70;;;;;;;5.88;79.88;100268.91;5010684;28;20498;-67
2021/11/16 04:15:32;;;;;;;18.85;12.93;;;;;;;5.95;80.19;100275.72;5009198;28;20037;-70
2021/11/16 04:17:59;;;;;;;17.80;12.85;;;;;;;5.96;79.73;100277.44;5008613;28;20040;-70
2021/11/16 04:20:37;;;;;;;20.55;12.30;;;;;;;5.98;80.05;100273.06;5007762;28;20804;-69
2021/11/16 04:23:06;;;;;;;18.95;13.35;;;;;;;5.94;80.50;100271.38;5007563;28;20033;-68
2021/11/16 04:25:32;;;;;;;17.02;13.18;;;;;;;5.98;80.21;100273.06;5009083;28;20030;-69
2021/11/16 04:27:59;;;;;;;15.70;11.15;;;;;;;5.99;79.35;100268.69;5006926;28;20572;-68
2021/11/16 04:30:26;;;;;;;17.08;12.02;;;;;;;6.00;79.20;100266.00;5007662;28;20038;-68
2021/11/16 04:32:52;;;;;;;18.38;11.93;;;;;;;6.00;79.70;100268.63;5008595;28;20410;-69
2021/11/16 04:35:18;;;;;;;18.40;12.88;;;;;;;6.00;79.87;100268.63;5008558;28;20509;-68
2021/11/16 04:37:47;;;;;;;23.35;15.35;;;;;;;5.98;80.58;100269.56;5008236;28;20128;-68
2021/11/16 04:40:16;;;;;;;18.90;13.30;;;;;;;5.90;80.74;100266.22;5007713;28;20144;-68
2021/11/16 04:42:42;;;;;;;14.07;10.75;;;;;;;5.90;80.19;100258.38;5007091;28;20034;-68
2021/11/16 04:45:11;;;;;;;16.80;11.30;;;;;;;5.94;80.10;100266.16;5006163;28;20034;-68
2021/11/16 04:47:47;;;;;;;15.40;10.23;;;;;;;5.94;80.18;100263.53;5007857;28;20501;-68
2021/11/16 04:50:23;;;;;;;;;;;;;;;5.92;79.80;100259.19;5007486;28;20064;-67
2021/11/16 04:55:27;;;;;;;16.63;11.25;;;;;;;5.92;80.14;100261.81;5007140;28;20395;-68
2021/11/16 05:03:21;;;;;;;16.45;9.85;;;;;;;5.87;79.90;100266.31;5007486;28;20142;-67
2021/11/16 05:05:46;;;;;;;11.70;8.35;;;;;;;5.87;79.90;100266.31;5007421;28;20520;-67
2021/11/16 05:08:14;;;;;;;12.77;8.73;;;;;;;5.85;79.71;100268.09;5007846;28;20034;-68
2021/11/16 05:10:39;;;;;;;10.60;7.78;;;;;;;5.85;79.98;100270.69;5006539;28;20417;-67
2021/11/16 05:13:05;;;;;;;11.73;7.80;;;;;;;5.83;79.89;100273.34;4990561;28;20037;-67
2021/11/16 05:15:30;;;;;;;12.43;8.30;;;;;;;5.82;80.06;100282.09;5007345;28;20044;-68
2021/11/16 05:17:56;;;;;;;8.80;6.18;;;;;;;5.82;79.92;100279.47;5007180;28;20042;-69
2021/11/16 05:20:22;;;;;;;10.23;7.22;;;;;;;5.84;79.51;100282.06;5004802;28;20042;-68
2021/11/16 05:22:52;;;;;;;11.85;8.85;;;;;;;5.86;80.00;100280.25;5007319;28;20597;-69
2021/11/16 05:25:18;;;;;;;10.32;6.72;;;;;;;5.84;79.89;100282.06;5006436;28;20386;-68
2021/11/16 05:27:44;;;;;;;8.38;6.05;;;;;;;5.85;79.95;100268.94;5007378;28;20038;-68
2021/11/16 05:30:12;;;;;;;8.52;6.32;;;;;;;5.89;80.05;100274.97;5007241;28;20056;-69
2021/11/16 05:32:38;;;;;;;10.45;7.25;;;;;;;5.88;79.30;100275.84;4989070;28;20684;-69
2021/11/16 05:35:06;;;;;;;10.57;6.72;;;;;;;5.84;79.65;100275.06;5007645;28;20034;-69
2021/11/16 05:37:32;;;;;;;10.50;7.32;;;;;;;5.85;79.77;100273.31;5007275;28;20034;-69
2021/11/16 05:39:57;;;;;;;9.68;6.10;;;;;;;5.78;79.64;100265.63;5007049;28;20103;-69
2021/11/16 05:42:23;;;;;;;8.98;6.55;;;;;;;5.79;79.31;100269.94;5006560;28;20210;-69
2021/11/16 05:44:49;;;;;;;9.77;6.18;;;;;;;5.79;79.09;100269.09;5006726;28;20484;-69
2021/11/16 05:47:14;;;;;;;7.82;5.45;;;;;;;5.81;79.23;100272.53;5007967;28;20049;-69
2021/11/16 05:49:40;;;;;;;10.50;6.55;;;;;;;5.76;79.69;100275.25;5009909;28;20038;-69
2021/11/16 05:52:06;;;;;;;11.20;6.70;;;;;;;5.79;79.47;100269.09;5006609;28;20083;-69
2021/11/16 05:54:34;;;;;;;10.93;6.60;;;;;;;5.75;79.94;100276.13;5006234;28;20092;-69
2021/11/16 05:57:07;;;;;;;8.70;5.68;;;;;;;5.79;79.14;100274.31;5006830;28;20034;-69
2021/11/16 05:59:34;;;;;;;8.60;6.43;;;;;;;5.77;78.66;100273.50;5006844;28;20466;-69
2021/11/16 06:02:08;;;;;;;7.65;4.68;;;;;;;5.75;79.37;100277.88;4988157;28;20157;-69
2021/11/16 06:04:34;;;;;;;7.13;5.15;;;;;;;5.77;79.21;100278.72;5006663;28;20026;-69
2021/11/16 06:07:02;;;;;;;6.82;4.40;;;;;;;5.75;78.23;100283.97;5013975;28;20119;-69
2021/11/16 06:09:30;;;;;;;13.00;4.97;;;;;;;5.76;77.25;100287.47;5006663;28;20065;-68
2021/11/16 06:11:56;;;;;;;5.50;4.22;;;;;;;5.78;76.96;100286.53;5005755;28;20497;-69
2021/11/16 06:14:21;;;;;;;8.02;5.85;;;;;;;5.79;77.07;100280.41;5005956;28;20044;-69
2021/11/16 06:16:47;;;;;;;5.57;4.40;;;;;;;5.78;77.41;100291.78;4986056;28;20053;-69
2021/11/16 06:19:16;;;;;;;7.97;4.25;;;;;;;5.81;77.46;100290.84;5006376;28;20045;-68
2021/11/16 06:21:41;;;;;;;6.80;4.88;;;;;;;5.79;77.14;100288.25;5006078;28;20521;-68
2021/11/16 06:24:07;;;;;;;7.47;4.93;;;;;;;5.79;77.55;100295.25;5006797;28;20030;-73
2021/11/16 06:26:33;;;;;;;8.68;5.07;;;;;;;5.74;76.98;100297.09;5005887;28;20034;-69
2021/11/16 06:29:02;;;;;;;5.78;4.13;;;;;;;5.74;77.46;100300.56;5006614;28;20061;-68
2021/11/16 06:31:29;;;;;;;6.22;4.40;;;;;;;5.75;76.99;100294.44;5005993;28;20045;-68
2021/11/16 06:33:58;;;;;;;6.47;4.40;;;;;;;5.75;77.03;100296.19;5006875;28;20458;-69
2021/11/16 06:36:32;;;;;;;6.45;4.30;;;;;;;5.78;77.17;100294.41;5006942;28;20046;-68
2021/11/16 06:38:58;;;;;;;7.43;5.35;;;;;;;5.84;77.58;100287.31;5006970;28;20042;-68
2021/11/16 06:41:24;;;;;;;4.45;3.17;;;;;;;5.87;77.02;100290.69;5006601;28;20461;-70
2021/11/16 06:43:49;;;;;;;5.60;3.60;;;;;;;5.89;76.58;100290.69;5006661;28;20095;-69
2021/11/16 06:46:14;;;;;;;7.25;5.38;;;;;;;5.92;76.23;100290.59;5006186;28;20596;-69
2021/11/16 06:48:43;;;;;;;7.53;4.47;;;;;;;5.92;75.57;100293.22;5014487;28;20146;-68
2021/11/16 06:51:08;;;;;;;5.15;3.92;;;;;;;5.94;76.09;100294.94;4996666;28;20441;-70
2021/11/16 06:53:35;;;;;;;7.13;4.60;;;;;;;5.96;75.32;100297.53;4979387;28;20042;-68
2021/11/16 06:56:04;;;;;;;5.68;4.40;;;;;;;5.95;75.96;100296.66;5005278;28;20057;-69
2021/11/16 06:58:30;;;;;;;5.53;4.20;;;;;;;5.94;75.44;100294.94;5005493;28;20133;-69
2021/11/16 07:00:56;;;;;;;6.32;4.88;;;;;;;5.95;75.66;100301.03;4971971;28;20033;-69
2021/11/16 07:03:24;;;;;;;7.65;5.70;;;;;;;5.96;75.41;100297.53;5005608;28;20045;-69
2021/11/16 07:06:00;;;;;;;6.35;4.60;;;;;;;5.97;75.79;100294.88;5006877;28;20057;-69
2021/11/16 07:08:31;;;;;;;5.75;3.92;;;;;;;5.98;75.50;100298.34;4998642;28;20084;-69
2021/11/16 07:11:06;;;;;;;6.55;5.07;;;;;;;5.98;76.05;100304.47;5008287;28;20026;-69
2021/11/16 07:13:33;;;;;;;7.45;5.43;;;;;;;5.99;75.16;100305.31;5010126;28;20060;-68
2021/11/16 07:15:59;;;;;;;7.75;5.18;;;;;;;6.00;74.71;100302.63;5009750;28;20379;-70
2021/11/16 07:18:24;;;;;;;7.10;5.40;;;;;;;5.98;75.20;100303.56;5009102;28;20194;-68
2021/11/16 07:21:00;;;;;;;7.88;5.47;;;;;;;6.01;75.09;100304.38;5009123;28;20030;-69
2021/11/16 07:23:25;;;;;;;8.75;4.93;;;;;;;6.00;74.85;100301.78;5010123;28;20092;-68
2021/11/16 07:25:51;;;;;;;7.53;5.15;;;;;;;5.98;75.49;100296.59;5009724;28;20026;-68
2021/11/16 07:28:16;;;;;;;6.20;4.57;;;;;;;5.98;75.80;100307.06;5009952;28;20034;-69
2021/11/16 07:30:42;;;;;;;5.95;4.75;;;;;;;5.99;75.48;100303.56;4994149;28;20038;-68
2021/11/16 07:33:14;;;;;;;10.02;6.32;;;;;;;5.98;75.68;100303.56;5012832;28;20057;-68
2021/11/16 07:35:43;;;;;;;9.00;6.80;;;;;;;5.98;76.15;100308.81;5017021;28;20087;-69
2021/11/16 07:38:13;;;;;;;10.07;5.93;;;;;;;5.98;75.90;100311.44;4991245;28;20413;-68
2021/11/16 07:40:46;;;;;;;8.55;6.22;;;;;;;5.98;75.90;100306.19;4990830;28;20490;-68
2021/11/16 07:43:21;;;;;;;10.40;6.28;;;;;;;5.97;75.98;100309.72;5008858;28;20146;-68
2021/11/16 07:45:53;;;;;;;8.35;6.00;;;;;;;5.98;76.04;100306.19;5019679;28;20057;-69
2021/11/16 07:48:20;;;;;;;11.75;6.53;;;;;;;5.98;75.37;100316.66;5016381;28;20034;-69
2021/11/16 07:51:05;;;;;;;7.63;5.80;;;;;;;5.98;75.63;100316.66;5017536;28;20034;-70
2021/11/16 07:53:37;;;;;;;13.48;7.13;;;;;;;6.00;75.42;100318.34;5016060;28;20041;-69
2021/11/16 07:56:09;;;;;;;9.85;7.15;;;;;;;5.97;75.29;100314.94;5015693;28;20041;-70
2021/11/16 07:58:40;;;;;;;8.55;6.57;;;;;;;6.01;75.51;100314.00;5019125;28;20034;-68
2021/11/16 08:01:14;;;;;;;9.02;6.30;;;;;;;6.04;75.77;100315.69;5015080;28;20030;-69
2021/11/16 08:03:57;;;;;;;10.15;6.93;;;;;;;6.01;76.26;100314.84;5016997;28;20665;-68
2021/11/16 08:06:41;;;;;;;8.93;6.55;;;;;;;6.01;75.70;100314.84;4990755;28;20042;-69
2021/11/16 08:09:27;;;;;;;10.50;7.60;;;;;;;6.01;75.92;100309.63;5014991;28;20037;-69
2021/11/16 08:14:41;;;;;;;11.07;7.90;;;;;;;6.01;76.24;100307.00;5017873;28;20405;-71
2021/11/16 08:17:09;;;;;;;9.73;6.93;;;;;;;6.00;75.28;100313.09;5013595;28;20042;-71
2021/11/16 08:19:37;;;;;;;11.93;8.75;;;;;;;6.00;75.71;100310.50;5001277;28;20636;-71
2021/11/16 08:22:06;;;;;;;11.93;7.63;;;;;;;6.06;76.33;100316.50;5013646;28;20087;-72
2021/11/16 08:24:36;;;;;;;9.40;7.15;;;;;;;6.06;76.36;100311.28;5017618;28;20037;-72
2021/11/16 08:27:08;;;;;;;14.25;7.90;;;;;;;6.08;76.20;100306.84;5028346;28;20029;-72
2021/11/16 08:29:37;;;;;;;13.85;7.82;;;;;;;6.08;76.02;100307.72;5022440;28;20026;-72
2021/11/16 08:32:10;;;;;;;10.27;7.47;;;;;;;6.03;76.41;100312.22;5006832;28;20657;-72
2021/11/16 08:34:42;;;;;;;14.88;9.05;;;;;;;6.01;75.96;100308.75;5009102;28;20041;-72
2021/11/16 08:37:09;;;;;;;12.90;9.32;;;;;;;6.00;76.20;100315.72;5008040;28;20490;-73
2021/11/16 08:39:42;;;;;;;15.40;8.25;;;;;;;6.00;76.66;100307.88;5008216;28;20044;-72
2021/11/16 08:42:11;;;;;;;9.88;7.75;;;;;;;6.07;76.33;100315.59;5007512;28;20351;-73
2021/11/16 08:44:53;;;;;;;11.18;7.25;;;;;;;6.12;76.55;100309.38;5008139;28;20091;-73
2021/11/16 08:47:30;;;;;;;12.40;8.27;;;;;;;6.15;76.35;100306.69;5009030;28;20032;-73
2021/11/16 08:49:57;;;;;;;13.32;8.88;;;;;;;6.19;76.42;100308.34;5009595;28;20044;-72
2021/11/16 08:52:26;;;;;;;14.52;9.57;;;;;;;6.20;76.52;100307.47;5015095;28;20132;-72
2021/11/16 08:55:11;;;;;;;12.38;8.98;;;;;;;6.27;76.44;100305.53;5000044;28;20038;-71
2021/11/16 08:57:42;;;;;;;16.38;9.98;;;;;;;6.30;75.66;100304.59;5002661;28;20056;-71
2021/11/16 09:00:30;;;;;;;13.57;9.68;;;;;;;6.33;76.26;100301.94;4984628;28;20034;-70
2021/11/16 09:03:06;;;;;;;13.93;10.13;;;;;;;6.30;75.62;100301.97;5002365;28;20976;-71
2021/11/16 09:05:43;;;;;;;13.25;9.05;;;;;;;6.27;76.07;100300.28;5002828;28;20038;-71
2021/11/16 09:08:32;;;;;;;12.00;8.85;;;;;;;6.30;76.44;100309.84;4978790;28;20054;-71
2021/11/16 09:11:01;;;;;;;17.30;8.40;;;;;;;6.36;76.48;100299.25;4996709;28;20025;-72
2021/11/16 09:13:29;;;;;;;12.13;8.13;;;;;;;6.38;76.39;100297.44;5004744;28;20037;-69
2021/11/16 09:16:04;;;;;;;11.48;8.10;;;;;;;6.41;75.79;100290.38;4998296;28;20022;-70
2021/11/16 09:18:41;;;;;;;13.73;8.07;;;;;;;6.45;75.63;100285.94;4982561;28;20056;-71
2021/11/16 09:21:08;;;;;;;11.13;8.07;;;;;;;6.49;74.92;100281.47;5001052;28;20152;-71
2021/11/16 09:23:40;;;;;;;13.98;8.10;;;;;;;6.49;74.80;100287.56;5001982;28;20041;-70
2021/11/16 09:28:54;;;;;;;;;;;;;;;6.48;74.96;100271.91;5002270;28;20068;-69
2021/11/16 09:31:27;;;;;;;9.88;7.32;;;;;;;6.49;75.91;100273.59;5002470;28;20248;-69
2021/11/16 09:33:56;;;;;;;13.13;8.23;;;;;;;6.50;75.28;100276.19;5003510;28;20040;-70
2021/11/16 09:36:28;;;;;;;13.02;8.77;;;;;;;6.54;74.81;100276.97;5002831;28;20049;-71
2021/11/16 09:39:04;;;;;;;17.85;8.43;;;;;;;6.54;74.63;100271.72;5002222;28;20042;-70
2021/11/16 09:41:37;;;;;;;17.20;9.27;;;;;;;6.54;74.74;100279.59;5000432;28;20072;-70
2021/11/16 09:44:09;;;;;;;9.55;6.70;;;;;;;6.55;74.03;100274.31;5001367;28;20041;-70
2021/11/16 09:46:43;;;;;;;16.92;8.80;;;;;;;6.60;73.06;100269.81;5000787;28;20026;-69
2021/11/16 09:49:12;;;;;;;9.65;6.80;;;;;;;6.55;73.13;100270.84;5001804;28;20176;-71
2021/11/16 09:51:39;;;;;;;11.13;7.20;;;;;;;6.47;72.87;100284.09;5013188;28;20068;-68
2021/11/16 09:54:07;;;;;;;10.40;6.22;;;;;;;6.49;72.93;100271.00;5019856;28;20029;-68
2021/11/16 09:56:34;;;;;;;11.00;6.15;;;;;;;6.58;73.14;100270.75;5021212;28;20041;-69
2021/11/16 09:59:00;;;;;;;9.93;7.43;;;;;;;6.64;72.95;100262.72;5003662;28;20088;-70
2021/11/16 10:01:31;;;;;;;9.55;6.00;;;;;;;6.63;72.23;100258.41;5018350;28;20068;-68
2021/11/16 10:04:19;;;;;;;7.93;6.57;;;;;;;6.72;72.44;100260.81;5003207;28;20041;-70
2021/11/16 10:06:45;;;;;;;10.68;6.47;;;;;;;6.77;72.20;100265.91;5000102;28;20398;-70
2021/11/16 10:09:11;;;;;;;9.77;6.78;;;;;;;6.80;72.29;100250.13;5006154;28;20042;-69
2021/11/16 10:11:43;;;;;;;11.90;7.88;;;;;;;6.79;72.70;100248.38;5008731;28;20038;-69
2021/11/16 10:14:16;;;;;;;10.85;7.63;;;;;;;6.85;73.45;100246.47;5011929;28;20061;-69
2021/11/16 10:16:43;;;;;;;8.68;6.28;;;;;;;6.81;72.74;100236.94;5000588;28;20129;-70
2021/11/16 10:19:08;;;;;;;10.55;7.65;;;;;;;6.85;71.91;100238.59;4983888;28;20042;-69
2021/11/16 10:21:34;;;;;;;12.82;7.55;;;;;;;6.84;71.89;100230.78;4987501;28;20413;-69
2021/11/16 10:24:00;;;;;;;8.38;6.05;;;;;;;6.78;71.94;100234.44;4981240;28;20038;-70
2021/11/16 10:26:34;;;;;;;11.23;6.97;;;;;;;6.76;72.17;100233.59;5011614;28;20033;-71
2021/11/16 10:29:00;;;;;;;9.32;6.75;;;;;;;6.79;72.18;100240.53;5019103;28;20175;-71
2021/11/16 10:31:36;;;;;;;12.77;6.35;;;;;;;6.80;71.60;100231.78;5006235;28;20042;-70
2021/11/16 10:34:01;;;;;;;7.63;5.90;;;;;;;6.84;71.37;100229.03;4983515;28;20041;-71
2021/11/16 10:36:28;;;;;;;10.93;7.80;;;;;;;6.89;71.65;100228.88;5001184;28;20481;-70
2021/11/16 10:38:58;;;;;;;10.75;7.47;;;;;;;6.91;72.05;100224.47;4995177;28;20053;-69
2021/11/16 10:41:30;;;;;;;8.80;5.80;;;;;;;6.91;71.93;100227.09;5001757;28;20038;-71
2021/11/16 10:44:07;;;;;;;7.97;6.00;;;;;;;6.92;71.44;100218.34;5005703;28;20069;-70
2021/11/16 10:46:35;;;;;;;8.65;5.78;;;;;;;6.92;71.54;100214.88;5006246;28;20053;-71
2021/11/16 10:49:09;;;;;;;9.15;6.03;;;;;;;6.92;70.66;100212.25;5006110;28;20494;-70
2021/11/16 10:51:34;;;;;;;19.65;13.68;;;;;;;6.96;71.77;100221.72;4990761;28;20029;-70
2021/11/16 10:54:01;;;;;;;9.43;7.28;;;;;;;6.99;71.54;100212.03;4990823;28;20046;-70
2021/11/16 10:56:30;;;;;;;7.35;5.32;;;;;;;6.97;71.14;100210.34;5009708;28;20050;-70
2021/11/16 10:59:04;;;;;;;10.75;6.82;;;;;;;6.96;71.09;100203.38;5004509;28;20065;-70
2021/11/16 11:01:29;;;;;;;6.43;4.82;;;;;;;6.91;70.50;100205.25;5007597;28;20057;-69
2021/11/16 11:03:55;;;;;;;6.28;5.07;;;;;;;6.88;70.50;100201.81;4988383;28;20065;-70
2021/11/16 11:06:23;;;;;;;7.00;4.55;;;;;;;6.86;70.15;100211.47;5005790;28;20056;-69
2021/11/16 11:08:49;;;;;;;7.45;4.65;;;;;;;6.85;70.34;100204.53;5003761;28;20050;-70
2021/11/16 11:11:15;;;;;;;7.65;5.03;;;;;;;6.92;69.79;100205.25;5003578;28;20034;-70
2021/11/16 11:13:40;;;;;;;5.85;4.15;;;;;;;6.97;70.38;100207.75;5004982;28;20033;-70
2021/11/16 11:16:11;;;;;;;7.15;4.65;;;;;;;6.98;69.47;100197.19;4986689;28;20067;-70
2021/11/16 11:18:39;;;;;;;7.28;5.43;;;;;;;6.93;69.80;100190.38;5010291;28;20107;-70
2021/11/16 11:21:21;;;;;;;13.77;6.13;;;;;;;6.98;70.06;100193.72;5007297;28;20187;-70
2021/11/16 11:23:48;;;;;;;6.63;5.03;;;;;;;6.99;69.72;100193.69;5024249;28;20037;-70
2021/11/16 11:26:38;;;;;;;6.75;4.43;;;;;;;7.07;69.43;100193.47;5006422;28;20040;-71
2021/11/16 11:29:24;;;;;;;6.38;4.13;;;;;;;7.12;69.01;100196.81;5023629;28;20504;-70
2021/11/16 11:32:08;;;;;;;6.13;4.85;;;;;;;7.12;68.75;100188.94;5001582;28;20061;-69
2021/11/16 11:34:37;;;;;;;7.90;3.65;;;;;;;7.15;68.12;100185.38;5000604;28;20042;-69
2021/11/16 11:37:13;;;;;;;7.25;3.28;;;;;;;7.13;68.38;100182.78;5003734;28;20125;-70
2021/11/16 11:39:38;;;;;;;5.00;3.42;;;;;;;7.13;68.54;100187.19;4997657;28;20034;-69
2021/11/16 11:42:06;;;;;;;6.25;4.07;;;;;;;7.07;68.12;100185.59;5000616;28;20100;-71
2021/11/16 11:44:40;;;;;;;6.03;4.00;;;;;;;7.20;70.21;100180.84;5004236;28;20673;-71